createdAt,value
2022-11-29T00:01:45.098Z,48.43
2022-11-29T00:04:13.826Z,40.87
2022-11-29T00:06:43.938Z,42.83
2022-11-29T00:09:14.506Z,44.97
2022-11-29T00:12:01.265Z,55.33
2022-11-29T00:14:30.639Z,52.07
2022-11-29T00:17:02.777Z,53.97
2022-11-29T00:19:32.486Z,51.97
2022-11-29T00:22:03.456Z,47.90
2022-11-29T00:24:33.126Z,46.77
2022-11-29T00:27:02.878Z,46.77
2022-11-29T00:29:32.038Z,43.27
2022-11-29T00:32:01.406Z,49.80
2022-11-29T00:34:30.115Z,44.40
2022-11-29T00:36:58.981Z,53.77
2022-11-29T00:39:29.333Z,45.43
2022-11-29T00:41:57.996Z,51.47
2022-11-29T00:44:26.712Z,49.83
2022-11-29T00:46:55.383Z,47.83
2022-11-29T00:49:24.083Z,49.93
2022-11-29T00:51:52.773Z,43.43
2022-11-29T00:54:21.760Z,46.70
2022-11-29T00:56:51.931Z,50.80
2022-11-29T00:59:20.718Z,47.97
2022-11-29T01:01:49.521Z,49.63
2022-11-29T01:04:18.581Z,47.93
2022-11-29T01:06:47.744Z,48.07
2022-11-29T01:09:16.545Z,48.93
2022-11-29T01:11:45.234Z,47.93
2022-11-29T01:14:15.626Z,45.00
2022-11-29T01:16:44.445Z,44.47
2022-11-29T01:19:13.229Z,46.33
2022-11-29T01:21:41.906Z,45.47
2022-11-29T01:24:10.595Z,44.80
2022-11-29T01:26:39.365Z,44.23
2022-11-29T01:29:08.062Z,42.53
2022-11-29T01:31:38.448Z,43.93
2022-11-29T01:34:08.485Z,43.30
2022-11-29T01:36:37.484Z,48.80
2022-11-29T01:39:07.716Z,47.03
2022-11-29T01:41:38.011Z,43.77
2022-11-29T01:44:28.122Z,45.13
2022-11-29T01:46:59.026Z,45.43
2022-11-29T01:49:33.599Z,40.50
2022-11-29T01:52:06.926Z,41.13
2022-11-29T01:54:41.013Z,41.47
2022-11-29T01:57:11.029Z,42.67
2022-11-29T01:59:43.306Z,47.23
2022-11-29T02:02:16.776Z,38.33
2022-11-29T02:04:47.670Z,40.97
2022-11-29T02:07:16.862Z,40.90
2022-11-29T02:09:45.888Z,37.30
2022-11-29T02:12:25.432Z,41.60
2022-11-29T02:15:16.321Z,40.40
2022-11-29T02:18:02.709Z,38.87
2022-11-29T02:21:02.208Z,42.10
2022-11-29T02:23:57.501Z,39.20
2022-11-29T02:26:48.355Z,38.53
2022-11-29T02:30:04.425Z,40.90
2022-11-29T02:33:02.206Z,36.57
2022-11-29T02:35:48.002Z,39.77
2022-11-29T02:38:25.624Z,40.23
2022-11-29T02:41:09.332Z,45.70
2022-11-29T02:44:13.708Z,39.63
2022-11-29T02:46:58.356Z,41.17
2022-11-29T02:49:43.354Z,38.80
2022-11-29T02:52:18.132Z,40.53
2022-11-29T02:54:53.724Z,37.47
2022-11-29T02:57:30.974Z,37.97
2022-11-29T03:00:05.335Z,36.77
2022-11-29T03:02:37.578Z,37.33
2022-11-29T03:05:17.339Z,40.03
2022-11-29T03:07:54.960Z,42.43
2022-11-29T03:10:33.823Z,45.33
2022-11-29T03:13:10.113Z,39.87
2022-11-29T03:15:46.153Z,36.30
2022-11-29T03:18:29.864Z,37.83
2022-11-29T03:21:10.399Z,38.33
2022-11-29T03:23:45.001Z,33.70
2022-11-29T03:26:18.905Z,34.73
2022-11-29T03:28:52.530Z,38.50
2022-11-29T03:31:28.682Z,33.67
2022-11-29T03:34:11.234Z,34.23
2022-11-29T03:36:49.422Z,40.90
2022-11-29T03:39:20.930Z,39.00
2022-11-29T03:41:54.691Z,34.53
2022-11-29T03:44:28.453Z,37.97
2022-11-29T03:47:01.579Z,34.20
2022-11-29T03:49:35.827Z,32.90
2022-11-29T03:52:13.820Z,39.50
2022-11-29T03:54:54.754Z,33.77
2022-11-29T03:57:32.687Z,34.67
2022-11-29T04:00:08.366Z,36.90
2022-11-29T04:03:04.136Z,38.67
2022-11-29T04:06:11.184Z,35.70
2022-11-29T04:09:21.557Z,35.17
2022-11-29T04:12:31.172Z,35.27
2022-11-29T04:15:32.225Z,34.13
2022-11-29T04:18:28.750Z,37.33
2022-11-29T04:21:31.880Z,33.33
2022-11-29T04:24:32.625Z,30.07
2022-11-29T04:27:40.542Z,35.33
2022-11-29T04:30:14.911Z,34.90
2022-11-29T04:33:20.364Z,30.47
2022-11-29T04:36:24.511Z,33.50
2022-11-29T04:39:28.855Z,33.07
2022-11-29T04:42:25.812Z,39.30
2022-11-29T04:45:12.323Z,31.70
2022-11-29T04:47:52.551Z,34.50
2022-11-29T04:50:43.493Z,33.70
2022-11-29T04:53:31.703Z,35.17
2022-11-29T04:56:14.972Z,33.90
2022-11-29T04:58:53.202Z,38.23
2022-11-29T05:01:28.164Z,39.60
2022-11-29T05:04:04.357Z,32.50
2022-11-29T05:06:40.804Z,34.90
2022-11-29T05:09:20.395Z,34.90
2022-11-29T05:12:02.823Z,38.47
2022-11-29T05:14:50.298Z,34.23
2022-11-29T05:17:32.749Z,32.30
2022-11-29T05:20:25.962Z,33.83
2022-11-29T05:23:10.063Z,32.43
2022-11-29T05:25:49.482Z,35.33
2022-11-29T05:28:25.971Z,44.20
2022-11-29T05:31:28.122Z,36.67
2022-11-29T05:34:33.369Z,35.30
2022-11-29T05:37:15.057Z,32.13
2022-11-29T05:39:58.809Z,40.60
2022-11-29T05:43:02.775Z,31.77
2022-11-29T05:45:37.158Z,34.03
2022-11-29T05:48:15.714Z,35.20
2022-11-29T05:50:49.907Z,33.80
2022-11-29T05:53:24.975Z,33.93
2022-11-29T05:56:04.079Z,37.13
2022-11-29T05:58:44.876Z,32.20
2022-11-29T06:01:24.275Z,39.10
2022-11-29T06:04:00.687Z,36.53
2022-11-29T06:06:36.851Z,36.40
2022-11-29T06:09:14.168Z,33.10
2022-11-29T06:11:48.187Z,35.73
2022-11-29T06:14:34.239Z,36.83
2022-11-29T06:17:26.063Z,33.87
2022-11-29T06:20:11.463Z,33.50
2022-11-29T06:22:58.129Z,35.83
2022-11-29T06:25:42.582Z,34.40
2022-11-29T06:28:28.838Z,39.33
2022-11-29T06:31:03.903Z,37.50
2022-11-29T06:33:39.977Z,37.20
2022-11-29T06:36:25.656Z,37.47
2022-11-29T06:38:56.459Z,32.47
2022-11-29T06:41:26.444Z,37.97
2022-11-29T06:43:55.816Z,35.97
2022-11-29T06:46:36.593Z,38.27
2022-11-29T06:49:13.455Z,36.97
2022-11-29T06:51:55.847Z,34.27
2022-11-29T06:54:49.197Z,37.87
2022-11-29T06:57:27.437Z,36.93
2022-11-29T07:00:11.178Z,36.73
2022-11-29T07:02:54.978Z,36.00
2022-11-29T07:05:28.937Z,38.60
2022-11-29T07:08:03.856Z,37.07
2022-11-29T07:10:36.563Z,36.33
2022-11-29T07:13:06.277Z,37.33
2022-11-29T07:15:36.837Z,40.43
2022-11-29T07:18:20.088Z,40.57
2022-11-29T07:20:58.156Z,39.20
2022-11-29T07:23:36.318Z,37.60
2022-11-29T07:26:18.320Z,41.47
2022-11-29T07:29:01.036Z,39.27
2022-11-29T07:31:39.618Z,44.07
2022-11-29T07:34:19.890Z,43.20
2022-11-29T07:36:59.198Z,40.67
2022-11-29T07:39:41.795Z,40.38
2022-11-29T07:42:18.197Z,42.30
2022-11-29T07:44:57.410Z,45.63
2022-11-29T07:47:27.494Z,39.47
2022-11-29T07:49:57.692Z,39.73
2022-11-29T07:52:26.440Z,38.73
2022-11-29T07:54:56.999Z,38.97
2022-11-29T07:57:25.767Z,33.07
2022-11-29T07:59:54.364Z,36.70
2022-11-29T08:02:29.227Z,34.43
2022-11-29T08:04:58.021Z,40.50
2022-11-29T08:07:27.099Z,40.63
2022-11-29T08:09:57.291Z,38.63
2022-11-29T08:12:26.358Z,40.47
2022-11-29T08:14:55.008Z,38.63
2022-11-29T08:17:23.612Z,44.33
2022-11-29T08:19:52.285Z,41.97
2022-11-29T08:22:21.158Z,37.83
2022-11-29T08:24:49.876Z,39.40
2022-11-29T08:27:19.924Z,34.40
2022-11-29T08:29:48.715Z,37.27
2022-11-29T08:32:17.553Z,42.13
2022-11-29T08:34:47.144Z,39.40
2022-11-29T08:37:17.657Z,43.23
2022-11-29T08:39:46.939Z,38.67
2022-11-29T08:42:16.307Z,40.47
2022-11-29T08:44:48.074Z,42.00
2022-11-29T08:47:34.398Z,42.77
2022-11-29T08:50:03.733Z,40.40
2022-11-29T08:52:50.606Z,37.90
2022-11-29T08:55:20.378Z,39.03
2022-11-29T08:57:49.218Z,41.50
2022-11-29T09:00:21.438Z,37.10
2022-11-29T09:02:50.235Z,39.10
2022-11-29T09:05:19.097Z,39.40
2022-11-29T09:07:47.765Z,37.70
2022-11-29T09:10:16.453Z,39.03
2022-11-29T09:12:45.216Z,41.10
2022-11-29T09:15:14.698Z,35.53
2022-11-29T09:17:45.357Z,40.50
2022-11-29T09:20:15.116Z,37.87
2022-11-29T09:22:43.904Z,41.88
2022-11-29T09:25:12.903Z,39.23
2022-11-29T09:27:42.302Z,41.87
2022-11-29T09:30:12.896Z,39.13
2022-11-29T09:32:41.760Z,39.33
2022-11-29T09:35:11.986Z,39.20
2022-11-29T09:37:44.576Z,40.20
2022-11-29T09:40:20.547Z,45.33
2022-11-29T09:42:59.373Z,41.70
2022-11-29T09:45:31.937Z,37.47
2022-11-29T09:48:27.846Z,37.57
2022-11-29T09:51:12.830Z,39.17
2022-11-29T09:53:59.000Z,37.97
2022-11-29T09:56:34.827Z,38.00
2022-11-29T09:59:07.437Z,45.20
2022-11-29T10:01:40.548Z,42.45
2022-11-29T10:04:15.438Z,36.40
2022-11-29T10:06:51.756Z,37.33
2022-11-29T10:09:30.879Z,40.65
2022-11-29T10:12:15.682Z,39.30
2022-11-29T10:14:52.107Z,40.03
2022-11-29T10:17:31.526Z,43.70
2022-11-29T10:20:05.816Z,34.67
2022-11-29T10:22:43.983Z,40.53
2022-11-29T10:25:23.018Z,35.13
2022-11-29T10:27:51.698Z,38.93
2022-11-29T10:30:21.078Z,43.30
2022-11-29T10:32:56.796Z,37.50
2022-11-29T10:35:26.296Z,37.43
2022-11-29T10:38:30.197Z,42.27
2022-11-29T10:40:52.736Z,37.70
2022-11-29T10:43:21.577Z,36.90
2022-11-29T10:45:56.336Z,33.50
2022-11-29T10:48:29.023Z,38.03
2022-11-29T10:50:57.821Z,38.07
2022-11-29T10:53:31.997Z,36.33
2022-11-29T10:56:05.975Z,37.30
2022-11-29T10:58:35.387Z,35.80
2022-11-29T11:01:07.827Z,37.20
2022-11-29T11:03:39.600Z,35.50
2022-11-29T11:06:16.091Z,32.60
2022-11-29T11:08:51.173Z,38.37
2022-11-29T11:11:30.738Z,34.63
2022-11-29T11:14:01.053Z,34.90
2022-11-29T11:16:35.617Z,37.37
2022-11-29T11:19:28.065Z,35.20
2022-11-29T11:21:57.967Z,39.60
2022-11-29T11:24:33.267Z,38.30
2022-11-29T11:27:02.897Z,36.70
2022-11-29T11:29:36.672Z,39.80
2022-11-29T11:32:16.461Z,36.73
2022-11-29T11:34:58.544Z,35.60
2022-11-29T11:37:29.942Z,33.93
2022-11-29T11:40:02.462Z,38.57
2022-11-29T11:42:38.291Z,37.60
2022-11-29T11:45:26.349Z,40.73
2022-11-29T11:47:58.138Z,34.07
2022-11-29T11:50:32.819Z,36.97
2022-11-29T11:53:06.820Z,37.73
2022-11-29T11:55:41.038Z,36.00
2022-11-29T11:58:19.857Z,34.80
2022-11-29T12:01:07.129Z,36.33
2022-11-29T12:03:51.291Z,35.67
2022-11-29T12:06:38.502Z,36.80
2022-11-29T12:09:18.976Z,37.13
2022-11-29T12:11:56.594Z,40.10
2022-11-29T12:14:34.231Z,38.50
2022-11-29T12:17:19.674Z,40.77
2022-11-29T12:20:01.577Z,35.17
2022-11-29T12:22:37.283Z,35.93
2022-11-29T12:25:12.998Z,35.13
2022-11-29T12:27:43.198Z,35.87
2022-11-29T12:30:15.906Z,34.57
2022-11-29T12:33:06.216Z,35.17
2022-11-29T12:35:50.700Z,36.47
2022-11-29T12:38:32.715Z,33.93
2022-11-29T12:41:15.096Z,31.27
2022-11-29T12:43:55.458Z,30.27
2022-11-29T12:46:26.549Z,34.47
2022-11-29T12:49:02.754Z,29.90
2022-11-29T12:51:42.007Z,29.50
2022-11-29T12:54:23.746Z,29.33
2022-11-29T12:57:02.499Z,28.27
2022-11-29T12:59:47.199Z,28.80
2022-11-29T13:02:32.501Z,25.70
2022-11-29T13:05:06.539Z,28.83
2022-11-29T13:07:45.561Z,31.50
2022-11-29T13:10:30.424Z,29.10
2022-11-29T13:13:01.224Z,29.53
2022-11-29T13:15:38.324Z,27.77
2022-11-29T13:18:16.557Z,29.87
2022-11-29T13:20:52.581Z,34.60
2022-11-29T13:23:46.011Z,40.40
2022-11-29T13:26:16.824Z,30.77
2022-11-29T13:28:50.924Z,30.43
2022-11-29T13:31:24.061Z,34.47
2022-11-29T13:34:00.329Z,27.63
2022-11-29T13:36:41.018Z,27.30
2022-11-29T13:39:31.458Z,32.70
2022-11-29T13:42:09.297Z,26.90
2022-11-29T13:44:46.617Z,25.20
2022-11-29T13:47:18.676Z,31.90
2022-11-29T13:49:59.424Z,28.13
2022-11-29T13:52:39.801Z,27.53
2022-11-29T13:55:23.797Z,26.20
2022-11-29T13:58:15.397Z,28.03
2022-11-29T14:00:52.302Z,28.83
2022-11-29T14:03:32.057Z,27.20
2022-11-29T14:06:12.044Z,25.60
2022-11-29T14:09:17.083Z,26.30
2022-11-29T14:11:39.164Z,26.57
2022-11-29T14:14:11.710Z,27.57
2022-11-29T14:16:48.160Z,25.30
2022-11-29T14:19:33.023Z,27.80
2022-11-29T14:22:30.555Z,26.90
2022-11-29T14:25:49.738Z,29.77
2022-11-29T14:28:30.780Z,27.87
2022-11-29T14:31:02.107Z,29.57
2022-11-29T14:33:52.597Z,25.57
2022-11-29T14:36:48.553Z,23.60
2022-11-29T14:39:31.642Z,28.80
2022-11-29T14:42:17.578Z,25.23
2022-11-29T14:44:52.567Z,24.63
2022-11-29T14:47:30.003Z,21.20
2022-11-29T14:50:01.227Z,25.13
2022-11-29T14:52:37.400Z,25.63
2022-11-29T14:55:09.628Z,22.33
2022-11-29T14:58:12.576Z,25.20
2022-11-29T15:01:10.943Z,26.40
2022-11-29T15:03:49.846Z,24.33
2022-11-29T15:06:29.269Z,24.77
2022-11-29T15:09:05.020Z,24.07
2022-11-29T15:11:49.751Z,26.83
2022-11-29T15:14:26.342Z,24.43
2022-11-29T15:17:09.398Z,25.27
2022-11-29T15:20:01.471Z,31.00
2022-11-29T15:22:37.682Z,21.93
2022-11-29T15:25:15.066Z,24.10
2022-11-29T15:27:53.258Z,30.90
2022-11-29T15:30:29.965Z,23.70
2022-11-29T15:33:00.004Z,31.03
2022-11-29T15:35:29.018Z,26.10
2022-11-29T15:37:58.312Z,27.30
2022-11-29T15:40:35.832Z,27.10
2022-11-29T15:43:16.747Z,24.33
2022-11-29T15:45:50.094Z,28.47
2022-11-29T15:48:22.503Z,29.40
2022-11-29T15:50:57.407Z,51.07
2022-11-29T15:53:31.429Z,50.13
2022-11-29T15:56:05.084Z,50.20
2022-11-29T15:58:36.301Z,59.03
2022-11-29T16:01:05.859Z,64.90
2022-11-29T16:03:38.016Z,53.57
2022-11-29T16:06:10.664Z,56.90
2022-11-29T16:08:43.723Z,54.77
2022-11-29T16:11:19.488Z,56.43
2022-11-29T16:14:05.228Z,58.37
2022-11-29T16:16:35.749Z,61.83
2022-11-29T16:19:19.932Z,58.30
2022-11-29T16:22:01.288Z,64.60
2022-11-29T16:24:30.208Z,59.60
2022-11-29T16:27:03.416Z,58.77
2022-11-29T16:29:36.011Z,56.70
2022-11-29T16:32:15.892Z,57.23
2022-11-29T16:34:45.858Z,57.20
2022-11-29T16:37:21.618Z,56.67
2022-11-29T16:39:54.524Z,53.03
2022-11-29T16:42:27.689Z,56.60
2022-11-29T16:45:06.773Z,55.17
2022-11-29T16:47:52.936Z,55.13
2022-11-29T16:50:24.780Z,50.47
2022-11-29T16:52:56.821Z,55.27
2022-11-29T16:55:26.858Z,55.13
2022-11-29T16:57:57.722Z,54.43
2022-11-29T17:00:32.488Z,52.40
2022-11-29T17:03:02.200Z,55.20
2022-11-29T17:05:32.486Z,52.40
2022-11-29T17:08:02.515Z,50.00
2022-11-29T17:10:32.507Z,57.63
2022-11-29T17:13:04.640Z,52.87
2022-11-29T17:15:33.375Z,50.83
2022-11-29T17:18:02.206Z,51.93
2022-11-29T17:20:31.116Z,45.17
2022-11-29T17:22:59.856Z,47.40
2022-11-29T17:25:29.732Z,49.27
2022-11-29T17:27:58.692Z,45.67
2022-11-29T17:30:32.539Z,43.97
2022-11-29T17:33:01.532Z,38.67
2022-11-29T17:35:30.625Z,50.07
2022-11-29T17:38:01.528Z,45.47
2022-11-29T17:40:33.407Z,44.00
2022-11-29T17:43:04.147Z,42.17
2022-11-29T17:45:35.478Z,45.03
2022-11-29T17:48:04.979Z,41.40
2022-11-29T17:50:34.584Z,46.13
2022-11-29T17:53:03.586Z,43.33
2022-11-29T17:55:32.517Z,48.80
2022-11-29T17:58:02.745Z,46.13
2022-11-29T18:00:33.692Z,49.00
2022-11-29T18:03:05.843Z,48.57
2022-11-29T18:05:35.426Z,48.93
2022-11-29T18:08:06.033Z,51.93
2022-11-29T18:10:36.278Z,50.03
2022-11-29T18:13:05.613Z,51.57
2022-11-29T18:15:34.905Z,55.00
2022-11-29T18:18:05.444Z,51.20
2022-11-29T18:20:35.649Z,54.90
2022-11-29T18:23:08.087Z,51.90
2022-11-29T18:25:39.512Z,49.90
2022-11-29T18:28:12.296Z,52.57
2022-11-29T18:30:44.574Z,52.07
2022-11-29T18:33:15.579Z,56.87
2022-11-29T18:35:49.421Z,50.33
2022-11-29T18:38:18.935Z,62.10
2022-11-29T18:40:49.518Z,72.17
2022-11-29T18:43:19.169Z,62.00
2022-11-29T18:45:48.932Z,53.23
2022-11-29T18:48:19.263Z,56.90
2022-11-29T18:50:48.866Z,55.37
2022-11-29T18:53:18.579Z,60.13
2022-11-29T18:55:47.779Z,54.67
2022-11-29T18:58:18.555Z,56.33
2022-11-29T19:00:48.833Z,54.27
2022-11-29T19:03:19.824Z,52.60
2022-11-29T19:05:53.884Z,49.97
2022-11-29T19:08:23.287Z,51.77
2022-11-29T19:10:53.776Z,62.03
2022-11-29T19:13:23.255Z,46.20
2022-11-29T19:15:56.436Z,50.17
2022-11-29T19:18:29.613Z,50.30
2022-11-29T19:21:06.986Z,47.07
2022-11-29T19:23:36.372Z,52.33
2022-11-29T19:26:08.486Z,48.03
2022-11-29T19:28:39.433Z,54.40
2022-11-29T19:31:09.583Z,50.73
2022-11-29T19:33:42.177Z,51.80
2022-11-29T19:36:18.272Z,55.07
2022-11-29T19:38:53.427Z,70.87
2022-11-29T19:41:25.415Z,51.23
2022-11-29T19:43:56.611Z,56.20
2022-11-29T19:46:29.155Z,48.60
2022-11-29T19:49:01.333Z,53.10
2022-11-29T19:51:32.008Z,52.47
2022-11-29T19:54:02.811Z,54.30
2022-11-29T19:56:33.665Z,58.67
2022-11-29T19:59:03.217Z,56.30
2022-11-29T20:01:40.117Z,66.93
2022-11-29T20:04:13.637Z,62.83
2022-11-29T20:06:44.981Z,59.77
2022-11-29T20:09:14.964Z,62.30
2022-11-29T20:11:45.583Z,63.23
2022-11-29T20:14:16.220Z,66.10
2022-11-29T20:16:46.691Z,60.03
2022-11-29T20:19:19.144Z,61.67
2022-11-29T20:21:49.939Z,62.60
2022-11-29T20:24:20.507Z,77.47
2022-11-29T20:26:51.087Z,67.83
2022-11-29T20:29:22.242Z,65.57
2022-11-29T20:31:51.750Z,56.70
2022-11-29T20:34:24.220Z,58.30
2022-11-29T20:37:18.689Z,63.50
2022-11-29T20:39:53.379Z,60.47
2022-11-29T20:42:48.888Z,64.27
2022-11-29T20:45:19.165Z,62.80
2022-11-29T20:47:55.032Z,61.67
2022-11-29T20:50:29.346Z,62.40
2022-11-29T20:53:14.901Z,58.57
2022-11-29T20:55:47.887Z,59.03
2022-11-29T20:58:18.897Z,66.70
2022-11-29T21:00:48.778Z,68.70
2022-11-29T21:03:18.398Z,54.47
2022-11-29T21:05:49.708Z,60.40
2022-11-29T21:08:21.540Z,60.60
2022-11-29T21:10:51.329Z,63.30
2022-11-29T21:13:22.313Z,60.10
2022-11-29T21:15:52.254Z,56.47
2022-11-29T21:18:26.347Z,64.17
2022-11-29T21:21:05.248Z,61.23
2022-11-29T21:23:46.645Z,73.53
2022-11-29T21:26:18.178Z,66.37
2022-11-29T21:28:57.971Z,61.87
2022-11-29T21:31:27.332Z,62.53
2022-11-29T21:33:56.671Z,65.00
2022-11-29T21:36:27.843Z,63.83
2022-11-29T21:39:03.593Z,77.17
2022-11-29T21:41:39.292Z,67.90
2022-11-29T21:44:08.985Z,67.23
2022-11-29T21:46:39.731Z,67.83
2022-11-29T21:49:09.217Z,70.00
2022-11-29T21:51:40.161Z,66.47
2022-11-29T21:54:13.294Z,67.90
2022-11-29T21:56:58.969Z,63.20
2022-11-29T21:59:34.112Z,72.13
2022-11-29T22:02:14.439Z,64.73
2022-11-29T22:04:47.816Z,70.50
2022-11-29T22:07:20.934Z,74.83
2022-11-29T22:09:52.420Z,72.00
2022-11-29T22:12:34.243Z,63.63
2022-11-29T22:15:03.907Z,70.27
2022-11-29T22:17:33.261Z,66.70
2022-11-29T22:20:02.431Z,65.30
2022-11-29T22:22:32.573Z,70.90
2022-11-29T22:25:01.194Z,65.70
2022-11-29T22:27:29.865Z,75.60
2022-11-29T22:29:58.530Z,67.20
2022-11-29T22:32:27.343Z,75.87
2022-11-29T22:34:55.996Z,63.17
2022-11-29T22:37:24.830Z,76.37
2022-11-29T22:39:54.945Z,75.77
2022-11-29T22:42:23.522Z,77.33
2022-11-29T22:44:52.404Z,74.07
2022-11-29T22:47:21.178Z,69.73
2022-11-29T22:49:50.523Z,71.80
2022-11-29T22:52:19.062Z,72.20
2022-11-29T22:54:47.946Z,76.20
2022-11-29T22:57:18.241Z,70.47
2022-11-29T22:59:47.002Z,72.60
2022-11-29T23:02:15.716Z,80.27
2022-11-29T23:04:45.834Z,69.07
2022-11-29T23:07:14.650Z,68.90
2022-11-29T23:09:43.322Z,67.83
2022-11-29T23:12:12.007Z,67.77
2022-11-29T23:14:42.067Z,67.50
2022-11-29T23:17:10.612Z,70.27
2022-11-29T23:19:39.304Z,69.57
2022-11-29T23:22:07.969Z,67.87
2022-11-29T23:24:36.659Z,69.57
2022-11-29T23:27:05.436Z,68.63
2022-11-29T23:29:34.121Z,69.13
2022-11-29T23:32:04.361Z,69.70
2022-11-29T23:34:32.957Z,71.37
2022-11-29T23:37:01.641Z,65.43
2022-11-29T23:39:30.379Z,71.00
2022-11-29T23:41:58.975Z,67.83
2022-11-29T23:44:27.618Z,70.67
2022-11-29T23:46:56.331Z,74.80
2022-11-29T23:49:26.384Z,69.00
2022-11-29T23:51:55.055Z,70.60
2022-11-29T23:54:24.830Z,70.30
2022-11-29T23:56:53.550Z,74.90
2022-11-29T23:59:22.350Z,71.23
